createdAt,value
2023-03-30T00:00:45.008Z,0
2023-03-30T00:06:11.241Z,0
2023-03-30T00:11:28.694Z,0
2023-03-30T00:16:46.058Z,0
2023-03-30T00:22:03.456Z,0
2023-03-30T00:27:20.910Z,0
2023-03-30T00:32:38.303Z,0
2023-03-30T00:37:55.710Z,0
2023-03-30T00:43:12.893Z,0
2023-03-30T00:48:30.344Z,0
2023-03-30T00:53:47.724Z,0
2023-03-30T00:59:05.044Z,0
2023-03-30T01:04:22.532Z,0
2023-03-30T01:09:39.941Z,0
2023-03-30T01:14:57.124Z,0
2023-03-30T01:20:14.386Z,0
2023-03-30T01:25:34.570Z,0
2023-03-30T01:30:52.024Z,0
2023-03-30T01:36:12.402Z,0
2023-03-30T01:41:30.055Z,0
2023-03-30T01:46:47.631Z,0
2023-03-30T01:52:04.985Z,0
2023-03-30T01:57:22.455Z,0
2023-03-30T02:02:40.085Z,0
2023-03-30T02:07:57.815Z,0
2023-03-30T02:13:15.276Z,0
2023-03-30T02:18:32.598Z,0
2023-03-30T02:23:52.553Z,0
2023-03-30T02:29:12.165Z,0
2023-03-30T02:39:49.646Z,0
2023-03-30T02:45:06.984Z,0
2023-03-30T02:50:41.251Z,0
2023-03-30T02:55:58.657Z,0
2023-03-30T03:01:15.893Z,0
2023-03-30T03:06:41.999Z,0
2023-03-30T03:11:59.423Z,0
2023-03-30T03:17:16.804Z,0
2023-03-30T03:22:34.244Z,0
2023-03-30T03:27:51.682Z,0
2023-03-30T03:33:12.188Z,0
2023-03-30T03:38:31.873Z,0
2023-03-30T03:43:49.186Z,0
2023-03-30T03:54:28.259Z,0
2023-03-30T03:59:45.586Z,0
2023-03-30T04:05:02.899Z,0
2023-03-30T04:10:20.402Z,0
2023-03-30T04:15:39.963Z,0
2023-03-30T04:20:57.814Z,0
2023-03-30T04:26:15.104Z,0
2023-03-30T04:31:33.949Z,0
2023-03-30T04:36:51.433Z,0
2023-03-30T04:42:08.727Z,0.1
2023-03-30T04:47:25.883Z,0.7
2023-03-30T04:58:03.402Z,0.5
2023-03-30T05:03:23.138Z,26.2
2023-03-30T05:08:41.818Z,70
2023-03-30T05:13:58.981Z,125
2023-03-30T05:19:15.936Z,227.9
2023-03-30T05:24:35.752Z,323.7
2023-03-30T05:29:52.840Z,502.5
2023-03-30T05:35:10.057Z,779.6
2023-03-30T05:40:27.136Z,835.8
2023-03-30T05:45:44.328Z,519.2
2023-03-30T05:51:02.498Z,557.9
2023-03-30T05:56:19.588Z,1041.7
2023-03-30T06:01:36.894Z,1360.8
2023-03-30T06:06:53.918Z,1967.1
2023-03-30T06:12:10.942Z,2320.8
2023-03-30T06:17:28.062Z,2312.9
2023-03-30T06:22:45.371Z,3120.4
2023-03-30T06:28:02.999Z,5195.4
2023-03-30T06:33:20.116Z,3848.3
2023-03-30T06:38:44.497Z,3525.4
2023-03-30T06:44:01.618Z,4337.1
2023-03-30T06:49:18.756Z,4546.7
2023-03-30T06:54:35.570Z,5080.8
2023-03-30T06:59:53.093Z,4900
2023-03-30T07:05:09.706Z,3029.2
2023-03-30T07:10:26.486Z,3733.3
2023-03-30T07:15:44.461Z,4143.8
2023-03-30T07:21:00.892Z,2884.6
2023-03-30T07:26:17.788Z,5187.5
2023-03-30T07:31:35.000Z,6829.2
2023-03-30T07:36:56.652Z,11510.4
2023-03-30T07:42:14.793Z,8903.7
2023-03-30T07:47:31.436Z,7911.2
2023-03-30T07:52:51.912Z,9482.9
2023-03-30T07:58:08.803Z,8667.5
2023-03-30T08:03:25.698Z,11276.2
2023-03-30T08:08:43.257Z,12723.3
2023-03-30T08:14:00.132Z,9940
2023-03-30T08:19:17.379Z,28045
2023-03-30T08:24:36.528Z,9741.2
2023-03-30T08:29:53.175Z,9747.9
2023-03-30T08:35:09.258Z,6850
2023-03-30T08:40:25.786Z,11740
2023-03-30T08:45:43.290Z,16307.1
2023-03-30T08:51:00.135Z,4588.7
2023-03-30T08:56:16.707Z,3520
2023-03-30T09:01:33.515Z,2367.5
2023-03-30T09:06:50.005Z,2184.2
2023-03-30T09:12:06.158Z,2037.5
2023-03-30T09:17:36.735Z,3500
2023-03-30T09:22:53.525Z,3722.1
2023-03-30T09:28:10.488Z,2828.8
2023-03-30T09:33:36.211Z,2017.1
2023-03-30T09:38:59.541Z,4155.8
2023-03-30T09:44:17.035Z,8315.4
2023-03-30T09:49:57.146Z,18922.9
2023-03-30T09:55:16.243Z,15760.4
2023-03-30T10:00:33.160Z,16187.9
2023-03-30T10:05:50.329Z,19431.3
2023-03-30T10:11:07.986Z,19030.8
2023-03-30T10:16:25.323Z,18445.8
2023-03-30T10:21:43.786Z,29957.5
2023-03-30T10:27:03.528Z,39498.3
2023-03-30T10:32:21.153Z,38246.7
2023-03-30T10:37:38.136Z,23564.6
2023-03-30T10:42:58.704Z,14145.8
2023-03-30T10:48:13.448Z,18403.3
2023-03-30T10:53:30.570Z,14357.9
2023-03-30T10:58:47.842Z,34673.3
2023-03-30T11:04:16.492Z,37545
2023-03-30T11:09:41.075Z,41573.3
2023-03-30T11:14:58.542Z,20979.2
2023-03-30T11:20:15.421Z,55548.6
2023-03-30T11:25:35.338Z,15070.4
2023-03-30T11:30:51.430Z,49460
2023-03-30T11:36:08.099Z,22449.6
2023-03-30T11:46:46.323Z,21512.5
2023-03-30T11:52:02.444Z,32941.7
2023-03-30T11:57:21.627Z,14318.7
2023-03-30T12:02:38.259Z,40347.5
2023-03-30T12:07:57.841Z,25641.7
2023-03-30T12:13:15.011Z,58215.2
2023-03-30T12:18:33.293Z,53997.9
2023-03-30T12:23:51.232Z,47081.7
2023-03-30T12:34:23.368Z,4302.1
2023-03-30T12:39:38.093Z,6271.7
2023-03-30T12:44:54.374Z,4233.3
2023-03-30T12:50:11.095Z,4369.6
2023-03-30T12:55:27.841Z,2748.8
2023-03-30T13:00:44.784Z,2900.8
2023-03-30T13:06:02.002Z,7260.4
2023-03-30T13:17:30.515Z,37345.8
2023-03-30T13:22:50.273Z,14671.7
2023-03-30T13:28:07.288Z,33011.7
2023-03-30T13:33:24.729Z,31658.3
2023-03-30T13:38:41.833Z,32679.2
2023-03-30T13:44:06.243Z,32343.3
2023-03-30T13:49:23.441Z,29451.7
2023-03-30T14:05:16.389Z,3093.3
2023-03-30T14:10:32.036Z,36156.7
2023-03-30T14:15:55.912Z,29018.3
2023-03-30T14:21:13.556Z,22768.3
2023-03-30T14:26:30.659Z,22171.7
2023-03-30T14:31:56.949Z,10102.1
2023-03-30T14:37:21.385Z,11527.9
2023-03-30T14:43:14.401Z,10380
2023-03-30T14:48:33.411Z,27614.2
2023-03-30T14:53:52.484Z,21885
2023-03-30T14:59:08.725Z,19358.3
2023-03-30T15:09:45.152Z,4300.4
2023-03-30T15:15:01.648Z,4417.9
2023-03-30T15:20:18.133Z,4340
2023-03-30T15:25:35.016Z,7087.9
2023-03-30T15:30:52.049Z,7001.3
2023-03-30T15:36:09.905Z,5645
2023-03-30T15:41:26.959Z,6781.2
2023-03-30T15:46:44.172Z,6154.2
2023-03-30T15:52:01.466Z,7505.4
2023-03-30T15:57:18.308Z,2966.3
2023-03-30T16:02:34.973Z,2494.6
2023-03-30T16:07:54.175Z,2404.2
2023-03-30T16:13:11.236Z,2376.7
2023-03-30T16:18:33.591Z,2387.1
2023-03-30T16:23:50.708Z,2480
2023-03-30T16:29:19.568Z,2395.4
2023-03-30T16:34:36.489Z,2283.3
2023-03-30T16:39:53.460Z,2525
2023-03-30T16:45:10.404Z,2434.6
2023-03-30T16:50:27.445Z,2060.4
2023-03-30T16:55:44.775Z,2064.2
2023-03-30T17:01:01.986Z,1827.5
2023-03-30T17:06:19.104Z,1693.7
2023-03-30T17:11:36.010Z,1609.2
2023-03-30T17:22:02.855Z,1155.4
2023-03-30T17:37:59.160Z,715.8
2023-03-30T17:43:16.315Z,1199.6
2023-03-30T17:48:33.287Z,721.7
2023-03-30T17:53:52.581Z,397.1
2023-03-30T17:59:09.650Z,258.8
2023-03-30T18:04:27.100Z,157.5
2023-03-30T18:09:43.978Z,87.9
2023-03-30T18:15:08.440Z,42.5
2023-03-30T18:20:25.503Z,17.9
2023-03-30T18:30:52.664Z,0
2023-03-30T18:36:10.088Z,0
2023-03-30T18:41:27.443Z,0
2023-03-30T18:46:44.839Z,0
2023-03-30T18:52:23.450Z,0
2023-03-30T18:57:41.173Z,0
2023-03-30T19:02:58.545Z,0
2023-03-30T19:08:16.216Z,0
2023-03-30T19:13:33.747Z,0
2023-03-30T19:18:51.027Z,0
2023-03-30T19:24:08.182Z,0
2023-03-30T19:29:28.528Z,0
2023-03-30T19:34:45.570Z,0
2023-03-30T19:40:02.979Z,0
2023-03-30T19:46:05.392Z,0
2023-03-30T19:51:23.335Z,0
2023-03-30T19:56:40.905Z,0
2023-03-30T20:01:58.202Z,0
2023-03-30T20:07:15.523Z,0
2023-03-30T20:12:32.802Z,0
2023-03-30T20:17:50.058Z,0
2023-03-30T20:23:07.772Z,0
2023-03-30T20:28:26.792Z,0
2023-03-30T20:33:43.999Z,0
2023-03-30T20:39:01.445Z,0
2023-03-30T20:44:22.088Z,0
2023-03-30T20:49:41.444Z,0
2023-03-30T20:54:59.442Z,0
2023-03-30T21:00:16.871Z,0
2023-03-30T21:05:34.307Z,0
2023-03-30T21:16:11.852Z,0
2023-03-30T21:21:29.251Z,0
2023-03-30T21:26:46.704Z,0
2023-03-30T21:32:03.952Z,0
2023-03-30T21:37:21.271Z,0
2023-03-30T21:42:38.562Z,0
2023-03-30T21:47:55.930Z,0
2023-03-30T21:53:13.387Z,0
2023-03-30T21:58:30.823Z,0
2023-03-30T22:03:48.358Z,0
2023-03-30T22:09:07.057Z,0
2023-03-30T22:14:24.273Z,0
2023-03-30T22:19:41.741Z,0
2023-03-30T22:24:59.061Z,0
2023-03-30T22:30:22.372Z,0
2023-03-30T22:35:39.706Z,0
2023-03-30T22:40:57.408Z,0
2023-03-30T22:46:25.062Z,0
2023-03-30T22:51:42.578Z,0
2023-03-30T22:57:00.326Z,0
2023-03-30T23:02:20.752Z,0
2023-03-30T23:07:38.156Z,0
2023-03-30T23:12:55.568Z,0
2023-03-30T23:18:12.844Z,0
2023-03-30T23:23:32.993Z,0
2023-03-30T23:28:52.882Z,0
2023-03-30T23:34:13.476Z,0
2023-03-30T23:39:30.819Z,0
2023-03-30T23:44:48.545Z,0
2023-03-30T23:50:05.868Z,0
2023-03-30T23:55:23.252Z,0
